Time;durP1;ratioP1;P1;durP2;ratioP2;P2;SDS_P1;SDS_P2;PMS_P1;PMS_P2;Temp;Humidity;BMP_temperature;BMP_pressure;BME280_temperature;BME280_humidity;BME280_pressure;Samples;Min_cycle;Max_cycle;Signal;HPM_P1;HPM_P2
2022/11/02 00:00:21;;;;;;;28.73;17.20;;;10.90;7.60;;;;;;5084446;28;20440;-56
2022/11/02 00:02:47;;;;;;;26.67;17.30;;;10.90;7.10;;;;;;5087766;28;20535;-57
2022/11/02 00:05:13;;;;;;;32.07;19.67;;;10.90;10.30;;;;;;5088079;28;20178;-56
2022/11/02 00:07:40;;;;;;;28.50;18.10;;;10.90;7.50;;;;;;5086681;28;20205;-55
2022/11/02 00:10:06;;;;;;;29.83;19.27;;;10.90;6.80;;;;;;5086782;28;20463;-55
2022/11/02 00:12:32;;;;;;;27.53;17.20;;;10.80;11.20;;;;;;5089686;28;20452;-54
2022/11/02 00:14:57;;;;;;;32.37;18.80;;;10.80;7.90;;;;;;5084267;28;20475;-56
2022/11/02 00:17:23;;;;;;;28.97;18.50;;;10.70;9.70;;;;;;5088937;28;20229;-55
2022/11/02 00:19:49;;;;;;;31.60;17.97;;;10.70;12.20;;;;;;5087953;28;20186;-54
2022/11/02 00:22:15;;;;;;;28.20;18.43;;;;;;;;;;5087823;28;20197;-56
2022/11/02 00:24:41;;;;;;;32.23;18.33;;;10.80;13.10;;;;;;5086519;28;20198;-55
2022/11/02 00:27:06;;;;;;;29.90;19.00;;;10.70;15.10;;;;;;5086116;28;20500;-54
2022/11/02 00:29:33;;;;;;;26.87;17.93;;;10.60;18.70;;;;;;5087233;28;20463;-53
2022/11/02 00:31:59;;;;;;;29.37;19.30;;;;;;;;;;5085388;28;20192;-57
2022/11/02 00:34:25;;;;;;;30.40;18.97;;;10.60;16.80;;;;;;5086332;28;20451;-54
2022/11/02 00:36:52;;;;;;;28.20;17.80;;;10.60;17.10;;;;;;5084311;28;20492;-54
2022/11/02 00:39:18;;;;;;;32.53;18.83;;;10.60;14.20;;;;;;5086560;28;20200;-55
2022/11/02 00:41:43;;;;;;;26.77;17.37;;;10.50;18.00;;;;;;5082843;28;20426;-56
2022/11/02 00:44:09;;;;;;;31.10;18.40;;;10.50;21.90;;;;;;5078951;28;20186;-56
2022/11/02 00:46:34;;;;;;;26.33;20.20;;;10.50;22.70;;;;;;5086026;28;20193;-55
2022/11/02 00:49:00;;;;;;;29.80;18.90;;;10.50;22.30;;;;;;5071892;28;20635;-56
2022/11/02 00:51:25;;;;;;;29.33;18.83;;;10.40;25.70;;;;;;5072723;28;20286;-56
2022/11/02 00:53:51;;;;;;;29.50;18.90;;;10.50;28.70;;;;;;5083695;28;20245;-54
2022/11/02 00:56:16;;;;;;;32.30;19.03;;;10.40;31.00;;;;;;5085360;28;20185;-56
2022/11/02 00:58:42;;;;;;;25.27;19.00;;;10.50;35.60;;;;;;5086689;28;20548;-55
2022/11/02 01:01:08;;;;;;;29.97;18.87;;;10.50;31.40;;;;;;5084116;28;20651;-54
2022/11/02 01:03:33;;;;;;;30.30;19.53;;;10.40;31.30;;;;;;5086957;28;20190;-53
2022/11/02 01:06:07;;;;;;;27.00;16.80;;;10.40;32.90;;;;;;5086321;28;20433;-56
2022/11/02 01:08:32;;;;;;;33.70;18.60;;;10.50;33.20;;;;;;5087049;28;20237;-55
2022/11/02 01:11:11;;;;;;;29.00;19.73;;;10.50;31.30;;;;;;5084409;28;20451;-55
2022/11/02 01:13:38;;;;;;;32.40;19.00;;;;;;;;;;5080547;28;20189;-55
2022/11/02 01:16:04;;;;;;;29.30;18.87;;;10.40;27.60;;;;;;5086916;28;20456;-54
2022/11/02 01:18:30;;;;;;;30.10;19.33;;;10.40;32.00;;;;;;5088656;28;20452;-55
2022/11/02 01:20:56;;;;;;;31.27;20.03;;;10.50;29.30;;;;;;5088856;28;20463;-56
2022/11/02 01:23:22;;;;;;;30.80;19.03;;;10.40;27.80;;;;;;5081702;28;20185;-53
2022/11/02 01:25:47;;;;;;;27.30;17.50;;;10.40;25.70;;;;;;5081581;28;21001;-55
2022/11/02 01:28:13;;;;;;;25.17;17.90;;;10.40;25.90;;;;;;5086086;28;20221;-56
2022/11/02 01:30:38;;;;;;;25.90;16.63;;;10.30;26.80;;;;;;5088411;28;20276;-55
2022/11/02 01:33:05;;;;;;;26.37;17.70;;;10.30;27.60;;;;;;5089923;28;20194;-54
2022/11/02 01:35:31;;;;;;;28.33;17.97;;;10.20;31.00;;;;;;5082257;28;20200;-53
2022/11/02 01:37:56;;;;;;;25.80;17.67;;;10.30;31.00;;;;;;5085464;28;20421;-54
2022/11/02 01:40:22;;;;;;;27.57;17.03;;;10.30;32.00;;;;;;5087525;28;20567;-53
2022/11/02 01:42:47;;;;;;;28.40;17.83;;;10.30;30.30;;;;;;5086696;28;20181;-55
2022/11/02 01:45:14;;;;;;;29.87;18.53;;;10.20;30.50;;;;;;5080594;28;20224;-56
2022/11/02 01:47:44;;;;;;;26.97;16.30;;;10.10;28.70;;;;;;5083945;28;20189;-56
2022/11/02 01:50:14;;;;;;;25.80;16.90;;;10.10;28.60;;;;;;5086552;28;20426;-53
2022/11/02 01:52:40;;;;;;;27.17;16.97;;;10.10;33.00;;;;;;5088445;28;20478;-52
2022/11/02 01:55:12;;;;;;;27.90;17.17;;;10.00;34.90;;;;;;5086565;28;20936;-55
2022/11/02 01:57:39;;;;;;;26.30;16.80;;;10.00;32.40;;;;;;5087001;28;21765;-53
2022/11/02 02:00:13;;;;;;;25.80;16.27;;;10.00;38.70;;;;;;5081270;28;20421;-56
2022/11/02 02:02:50;;;;;;;25.27;16.83;;;10.00;37.80;;;;;;5085106;28;20468;-54
2022/11/02 02:05:16;;;;;;;26.63;17.47;;;10.00;38.10;;;;;;5086714;28;20906;-53
2022/11/02 02:07:43;;;;;;;27.10;18.30;;;10.00;38.10;;;;;;5086323;28;20474;-56
2022/11/02 02:10:09;;;;;;;29.20;17.00;;;10.00;41.50;;;;;;5081839;28;20460;-55
2022/11/02 02:12:37;;;;;;;29.17;18.57;;;9.90;41.30;;;;;;5087871;28;20425;-55
2022/11/02 02:15:02;;;;;;;33.27;19.37;;;9.90;45.80;;;;;;5081620;28;20209;-56
2022/11/02 02:17:43;;;;;;;26.43;16.93;;;9.90;50.90;;;;;;5085242;28;20983;-55
2022/11/02 02:20:23;;;;;;;35.73;19.07;;;9.90;53.80;;;;;;5076838;28;20255;-55
2022/11/02 02:23:12;;;;;;;31.73;18.67;;;10.00;54.60;;;;;;5085640;28;20447;-54
2022/11/02 02:25:51;;;;;;;31.80;18.43;;;9.90;52.40;;;;;;5080919;28;20460;-53
2022/11/02 02:29:03;;;;;;;27.87;18.57;;;9.90;52.80;;;;;;5086151;28;20480;-57
2022/11/02 02:31:48;;;;;;;25.17;16.23;;;9.90;55.90;;;;;;5083775;28;20422;-56
2022/11/02 02:34:22;;;;;;;25.80;16.67;;;10.00;50.20;;;;;;5086786;28;20496;-53
2022/11/02 02:36:56;;;;;;;28.60;16.53;;;9.90;53.10;;;;;;5085477;28;20443;-56
2022/11/02 02:39:28;;;;;;;26.90;18.23;;;9.90;54.50;;;;;;5083080;28;20444;-55
2022/11/02 02:42:11;;;;;;;32.40;18.60;;;9.80;54.90;;;;;;5085978;28;20444;-54
2022/11/02 02:44:41;;;;;;;27.37;16.63;;;9.90;54.40;;;;;;5082684;28;20440;-56
2022/11/02 02:47:15;;;;;;;31.50;19.50;;;9.90;51.30;;;;;;5080912;28;20487;-54
2022/11/02 02:49:47;;;;;;;35.70;17.80;;;9.90;53.80;;;;;;5076859;28;20473;-53
2022/11/02 02:52:15;;;;;;;29.03;17.50;;;9.90;53.70;;;;;;5085153;28;20440;-53
2022/11/02 02:54:42;;;;;;;28.33;17.97;;;9.90;56.40;;;;;;5085596;28;20425;-54
2022/11/02 02:57:12;;;;;;;31.97;17.60;;;9.90;55.50;;;;;;5085864;28;20827;-54
2022/11/02 02:59:42;;;;;;;23.10;16.33;;;9.80;56.10;;;;;;5083150;28;20461;-54
2022/11/02 03:02:18;;;;;;;27.10;16.90;;;9.80;57.80;;;;;;5084501;28;20429;-54
2022/11/02 03:04:44;;;;;;;26.60;16.27;;;9.80;56.70;;;;;;5080739;28;20939;-55
2022/11/02 03:07:13;;;;;;;28.40;16.60;;;9.80;55.00;;;;;;5081557;28;20484;-55
2022/11/02 03:09:39;;;;;;;25.27;16.67;;;;;;;;;;5087305;28;20227;-54
2022/11/02 03:12:32;;;;;;;30.03;17.00;;;9.70;52.80;;;;;;5084768;28;20526;-55
2022/11/02 03:15:12;;;;;;;24.33;15.33;;;9.80;52.30;;;;;;5085649;28;20442;-54
2022/11/02 03:18:17;;;;;;;21.07;14.30;;;9.80;38.40;;;;;;5080818;28;20510;-56
2022/11/02 03:20:46;;;;;;;24.10;14.17;;;9.70;32.90;;;;;;5086085;28;20424;-55
2022/11/02 03:23:24;;;;;;;27.07;15.23;;;9.70;36.60;;;;;;5087649;28;20436;-56
2022/11/02 03:25:58;;;;;;;23.27;14.97;;;9.70;30.40;;;;;;5085500;28;20508;-53
2022/11/02 03:28:37;;;;;;;24.00;14.30;;;9.60;34.70;;;;;;5078746;28;20513;-54
2022/11/02 03:31:19;;;;;;;23.33;14.97;;;9.70;33.60;;;;;;5080642;28;20537;-54
2022/11/02 03:33:55;;;;;;;19.90;13.03;;;9.60;35.30;;;;;;5086975;28;20914;-55
2022/11/02 03:36:45;;;;;;;23.27;13.53;;;9.50;35.80;;;;;;5085337;28;20537;-53
2022/11/02 03:39:14;;;;;;;22.07;13.60;;;9.60;30.60;;;;;;5082827;28;20921;-55
2022/11/02 03:41:43;;;;;;;25.30;14.27;;;9.60;23.50;;;;;;5085001;28;20461;-55
2022/11/02 03:44:29;;;;;;;26.77;15.17;;;9.50;26.20;;;;;;5078019;28;20933;-55
2022/11/02 03:46:58;;;;;;;22.70;13.20;;;9.60;24.90;;;;;;5078443;28;20465;-54
2022/11/02 03:49:27;;;;;;;29.57;15.80;;;9.50;29.70;;;;;;5085513;28;21131;-55
2022/11/02 03:51:54;;;;;;;23.10;15.87;;;9.50;32.60;;;;;;5085799;28;20426;-55
2022/11/02 03:54:42;;;;;;;24.40;14.43;;;9.50;37.50;;;;;;5081784;28;20942;-56
2022/11/02 03:57:17;;;;;;;27.23;15.77;;;9.50;39.70;;;;;;5082128;28;20766;-55
2022/11/02 03:59:43;;;;;;;25.63;15.60;;;9.50;37.10;;;;;;5088490;28;20545;-53
2022/11/02 04:02:11;;;;;;;24.70;14.67;;;9.50;33.00;;;;;;5083741;28;20415;-54
2022/11/02 04:04:50;;;;;;;29.20;16.90;;;9.50;34.90;;;;;;5089351;28;20509;-55
2022/11/02 04:07:20;;;;;;;23.57;14.13;;;9.50;32.80;;;;;;5089215;28;20443;-55
2022/11/02 04:09:46;;;;;;;22.87;14.20;;;9.50;29.20;;;;;;5087800;28;20524;-55
2022/11/02 04:14:56;;;;;;;25.57;15.53;;;9.50;27.20;;;;;;5084384;28;20197;-54
2022/11/02 04:20:06;;;;;;;22.83;14.70;;;9.60;25.20;;;;;;5086463;28;20272;-53
2022/11/02 04:25:18;;;;;;;22.43;13.50;;;9.50;20.30;;;;;;5085759;28;20433;-53
2022/11/02 04:27:46;;;;;;;23.93;13.90;;;9.60;16.70;;;;;;5085701;28;20915;-55
2022/11/02 04:30:13;;;;;;;23.77;14.70;;;9.50;12.20;;;;;;5080027;28;20461;-56
2022/11/02 04:35:29;;;;;;;24.47;16.00;;;9.40;11.60;;;;;;5082214;28;20424;-55
2022/11/02 04:40:40;;;;;;;26.80;15.87;;;9.30;12.20;;;;;;5082328;28;20964;-56
2022/11/02 04:43:05;;;;;;;37.10;17.27;;;9.30;13.30;;;;;;5091060;28;20439;-55
2022/11/02 04:45:31;;;;;;;28.50;15.43;;;9.30;15.90;;;;;;5087721;28;20218;-54
2022/11/02 04:48:01;;;;;;;23.47;13.40;;;9.30;8.10;;;;;;5087946;28;20614;-55
2022/11/02 04:50:27;;;;;;;24.10;14.60;;;9.30;12.70;;;;;;5083215;28;20182;-56
2022/11/02 04:52:57;;;;;;;23.70;15.23;;;9.30;13.00;;;;;;5084770;28;20466;-54
2022/11/02 04:55:22;;;;;;;31.00;15.73;;;9.30;13.90;;;;;;5089686;28;20795;-55
2022/11/02 04:57:48;;;;;;;26.63;14.80;;;9.30;5.50;;;;;;5088317;28;20452;-55
2022/11/02 05:00:14;;;;;;;27.53;15.40;;;9.30;12.20;;;;;;5087274;28;20193;-54
2022/11/02 05:02:40;;;;;;;25.43;15.60;;;9.40;12.20;;;;;;5085976;28;20193;-55
2022/11/02 05:05:06;;;;;;;26.37;14.50;;;9.40;11.40;;;;;;5088039;28;20450;-56
2022/11/02 05:07:31;;;;;;;24.87;14.00;;;9.40;20.20;;;;;;5083066;28;20220;-56
2022/11/02 05:09:57;;;;;;;20.43;13.20;;;9.40;14.70;;;;;;5084613;28;20999;-54
2022/11/02 05:12:23;;;;;;;26.63;13.57;;;;;;;;;;5088203;28;20240;-56
2022/11/02 05:14:48;;;;;;;26.67;14.57;;;9.40;11.20;;;;;;5089234;28;20213;-54
2022/11/02 05:17:15;;;;;;;24.00;13.93;;;9.40;5.40;;;;;;5088161;28;20813;-54
2022/11/02 05:19:40;;;;;;;25.63;15.10;;;9.20;5.60;;;;;;5088252;28;20221;-57
2022/11/02 05:22:06;;;;;;;29.57;15.10;;;9.20;6.00;;;;;;5086507;28;20432;-57
2022/11/02 05:24:32;;;;;;;22.40;13.03;;;;;;;;;;5087151;28;20198;-54
2022/11/02 05:26:59;;;;;;;24.50;13.63;;;9.30;1.10;;;;;;5088722;28;20192;-57
2022/11/02 05:29:25;;;;;;;27.43;15.67;;;9.20;1.90;;;;;;5085728;28;20505;-55
2022/11/02 05:31:50;;;;;;;22.27;14.20;;;9.20;1.60;;;;;;5085520;28;20418;-56
2022/11/02 05:34:16;;;;;;;25.40;13.43;;;9.30;1.00;;;;;;5084856;28;20437;-54
2022/11/02 05:36:42;;;;;;;26.53;14.17;;;9.20;1.00;;;;;;5083910;28;20184;-54
2022/11/02 05:39:08;;;;;;;25.93;12.40;;;;;;;;;;5084191;28;20220;-54
2022/11/02 05:41:33;;;;;;;19.13;12.87;;;9.20;1.00;;;;;;5086958;28;20239;-56
2022/11/02 05:43:59;;;;;;;23.50;12.70;;;9.10;1.00;;;;;;5088384;28;20440;-56
2022/11/02 05:46:26;;;;;;;23.93;14.50;;;9.10;1.00;;;;;;5088322;28;20221;-56
2022/11/02 05:48:51;;;;;;;19.20;12.07;;;9.10;1.00;;;;;;5083930;28;20220;-54
2022/11/02 05:51:17;;;;;;;23.60;12.87;;;9.10;1.00;;;;;;5088325;28;20451;-55
2022/11/02 05:53:42;;;;;;;21.70;13.10;;;9.10;1.00;;;;;;5087045;28;20313;-55
2022/11/02 05:56:10;;;;;;;21.80;12.93;;;9.10;1.00;;;;;;5086933;28;20181;-55
2022/11/02 05:58:36;;;;;;;23.63;13.67;;;;;;;;;;5086524;28;20247;-56
2022/11/02 06:01:06;;;;;;;25.87;13.63;;;9.00;1.00;;;;;;5088871;28;20503;-55
2022/11/02 06:03:32;;;;;;;29.43;15.30;;;;;;;;;;5085754;28;20482;-60
2022/11/02 06:06:03;;;;;;;27.23;13.57;;;8.90;1.00;;;;;;5087535;28;20451;-54
2022/11/02 06:08:34;;;;;;;22.53;13.20;;;9.00;1.00;;;;;;5087129;28;20513;-56
2022/11/02 06:11:11;;;;;;;18.50;12.50;;;9.00;1.00;;;;;;5089455;28;20456;-56
2022/11/02 06:13:38;;;;;;;24.87;13.87;;;8.90;1.00;;;;;;5086230;28;20474;-55
2022/11/02 06:16:08;;;;;;;18.77;12.93;;;9.00;1.00;;;;;;5089144;28;20481;-56
2022/11/02 06:18:34;;;;;;;24.03;13.33;;;9.00;1.00;;;;;;5088389;28;20493;-54
2022/11/02 06:21:00;;;;;;;20.60;13.20;;;9.20;1.00;;;;;;5089265;28;20502;-56
2022/11/02 06:23:26;;;;;;;23.63;12.10;;;9.20;1.00;;;;;;5086440;28;20451;-55
2022/11/02 06:25:56;;;;;;;19.50;12.00;;;9.20;1.00;;;;;;5083936;28;20443;-56
2022/11/02 06:28:23;;;;;;;17.47;11.50;;;9.20;1.00;;;;;;5087705;28;20550;-56
2022/11/02 06:30:49;;;;;;;22.50;14.10;;;9.30;1.00;;;;;;5085538;28;20556;-57
2022/11/02 06:33:16;;;;;;;23.63;12.33;;;9.40;1.00;;;;;;5084874;28;21023;-55
2022/11/02 06:35:46;;;;;;;22.77;11.43;;;9.50;1.00;;;;;;5086540;28;20506;-54
2022/11/02 06:38:11;;;;;;;23.70;12.07;;;9.60;1.00;;;;;;5085022;28;20544;-55
2022/11/02 06:40:38;;;;;;;19.30;10.80;;;9.70;1.00;;;;;;5082643;28;20828;-56
2022/11/02 06:43:03;;;;;;;20.40;10.37;;;9.80;1.00;;;;;;5086385;28;20226;-55
2022/11/02 06:45:29;;;;;;;16.90;9.87;;;9.90;1.00;;;;;;5086605;28;20457;-55
2022/11/02 06:47:54;;;;;;;17.53;10.27;;;9.90;1.00;;;;;;5082778;28;20196;-56
2022/11/02 06:50:21;;;;;;;14.40;9.83;;;10.00;1.00;;;;;;5085793;28;20202;-55
2022/11/02 06:52:47;;;;;;;17.90;10.33;;;9.90;1.00;;;;;;5088273;28;20235;-55
2022/11/02 06:55:14;;;;;;;19.93;11.13;;;10.00;1.00;;;;;;5087118;28;20451;-56
2022/11/02 06:57:41;;;;;;;18.53;9.87;;;10.00;1.00;;;;;;5087009;28;20198;-54
2022/11/02 07:00:11;;;;;;;20.50;11.40;;;10.00;1.00;;;;;;5083926;28;20455;-54
2022/11/02 07:02:37;;;;;;;16.87;10.30;;;10.10;1.00;;;;;;5088588;28;20444;-56
2022/11/02 07:05:03;;;;;;;14.50;8.67;;;;;;;;;;5086908;28;20971;-55
2022/11/02 07:07:29;;;;;;;16.10;9.93;;;10.00;1.00;;;;;;5083946;28;20478;-55
2022/11/02 07:09:54;;;;;;;16.23;9.10;;;10.00;1.00;;;;;;5088612;28;20467;-57
2022/11/02 07:12:20;;;;;;;16.17;9.00;;;10.00;1.00;;;;;;5086440;28;20193;-56
2022/11/02 07:14:45;;;;;;;15.27;10.43;;;10.00;1.00;;;;;;5089014;28;20200;-57
2022/11/02 07:17:11;;;;;;;16.90;9.40;;;9.90;1.00;;;;;;5088031;28;20268;-55
2022/11/02 07:19:37;;;;;;;15.77;8.40;;;10.00;1.00;;;;;;5087845;28;20193;-56
2022/11/02 07:22:03;;;;;;;17.33;9.77;;;;;;;;;;5087438;28;20213;-55
2022/11/02 07:24:28;;;;;;;16.50;9.90;;;10.00;1.00;;;;;;5087942;28;20235;-56
2022/11/02 07:26:54;;;;;;;17.27;8.90;;;10.00;1.00;;;;;;5088112;28;20439;-55
2022/11/02 07:29:19;;;;;;;18.07;8.90;;;10.00;1.00;;;;;;5083093;28;20647;-53
2022/11/02 07:31:45;;;;;;;18.70;10.00;;;10.20;1.00;;;;;;5088759;28;20278;-55
2022/11/02 07:34:11;;;;;;;13.50;8.00;;;10.30;1.00;;;;;;5089471;28;20197;-54
2022/11/02 07:36:37;;;;;;;16.57;8.47;;;10.40;1.00;;;;;;5092935;28;20696;-55
2022/11/02 07:39:04;;;;;;;15.70;9.63;;;10.40;1.00;;;;;;5085269;28;20434;-56
2022/11/02 07:41:29;;;;;;;14.67;9.03;;;10.50;1.00;;;;;;5088325;28;20198;-55
2022/11/02 07:43:55;;;;;;;19.93;8.63;;;;;;;;;;5087406;28;20459;-55
2022/11/02 07:46:21;;;;;;;13.37;8.23;;;10.70;1.00;;;;;;5091734;28;20189;-58
2022/11/02 07:48:46;;;;;;;16.90;8.70;;;10.80;1.00;;;;;;5089613;28;20824;-54
2022/11/02 07:51:12;;;;;;;17.00;9.57;;;;;;;;;;5091185;28;20298;-55
2022/11/02 07:53:38;;;;;;;15.60;7.80;;;10.90;1.00;;;;;;5090098;28;20241;-55
2022/11/02 07:56:05;;;;;;;15.67;8.80;;;11.00;1.00;;;;;;5092849;28;20425;-56
2022/11/02 07:58:30;;;;;;;15.23;7.87;;;11.10;1.00;;;;;;5089451;28;20867;-54
2022/11/02 08:01:00;;;;;;;12.10;7.90;;;11.20;1.00;;;;;;5090303;28;21016;-54
2022/11/02 08:03:27;;;;;;;17.23;9.20;;;11.30;1.00;;;;;;5089494;28;20239;-54
2022/11/02 08:05:53;;;;;;;11.80;8.40;;;11.50;1.00;;;;;;5088923;28;20907;-55
2022/11/02 08:08:21;;;;;;;10.70;7.10;;;11.60;1.00;;;;;;5089160;28;20475;-56
2022/11/02 08:10:48;;;;;;;14.13;8.70;;;11.70;1.00;;;;;;5090596;28;21917;-56
2022/11/02 08:13:16;;;;;;;16.13;8.77;;;11.90;1.00;;;;;;5089127;28;20817;-55
2022/11/02 08:15:42;;;;;;;11.43;7.87;;;12.00;1.00;;;;;;5090156;28;20426;-56
2022/11/02 08:18:12;;;;;;;12.53;7.67;;;12.10;1.00;;;;;;5092284;28;20414;-56
2022/11/02 08:20:37;;;;;;;12.20;7.43;;;12.20;1.00;;;;;;5092027;28;20299;-55
2022/11/02 08:23:04;;;;;;;10.93;7.57;;;12.60;1.00;;;;;;5090631;28;20531;-56
2022/11/02 08:25:30;;;;;;;13.17;7.33;;;13.10;1.00;;;;;;5090232;28;20191;-56
2022/11/02 08:27:59;;;;;;;12.50;7.77;;;13.70;1.00;;;;;;5088608;28;20422;-56
2022/11/02 08:30:27;;;;;;;13.90;8.23;;;13.90;1.00;;;;;;5089962;28;20452;-56
2022/11/02 08:32:53;;;;;;;19.43;7.90;;;14.00;1.00;;;;;;5091241;28;20441;-57
2022/11/02 08:35:19;;;;;;;12.57;7.03;;;13.90;1.00;;;;;;5091431;28;20542;-55
2022/11/02 08:37:44;;;;;;;13.67;7.60;;;13.90;1.00;;;;;;5091638;28;20518;-56
2022/11/02 08:40:10;;;;;;;10.63;6.27;;;13.90;1.00;;;;;;5072573;28;20208;-56
2022/11/02 08:42:37;;;;;;;14.93;7.50;;;13.90;1.00;;;;;;5091316;28;20258;-54
2022/11/02 08:45:05;;;;;;;9.80;5.50;;;14.00;1.00;;;;;;5090630;28;20408;-56
2022/11/02 08:47:31;;;;;;;17.70;6.80;;;14.00;1.00;;;;;;5090937;28;20460;-55
2022/11/02 08:49:57;;;;;;;8.07;5.53;;;14.00;1.00;;;;;;5090257;28;20546;-56
2022/11/02 08:52:22;;;;;;;9.70;5.63;;;14.10;1.00;;;;;;5091337;28;20187;-55
2022/11/02 08:54:48;;;;;;;10.13;5.27;;;14.20;1.00;;;;;;5090475;28;20272;-56
2022/11/02 08:57:13;;;;;;;9.37;3.40;;;14.70;1.00;;;;;;5091374;28;20204;-56
2022/11/02 08:59:39;;;;;;;6.63;2.50;;;14.90;1.00;;;;;;5089110;28;20189;-56
2022/11/02 09:02:04;;;;;;;11.53;2.73;;;15.10;1.00;;;;;;5090765;28;20727;-55
2022/11/02 09:04:30;;;;;;;9.37;3.03;;;15.30;1.00;;;;;;5090961;28;20189;-56
2022/11/02 09:06:55;;;;;;;10.90;2.90;;;15.30;1.00;;;;;;5090319;28;20728;-56
2022/11/02 09:09:21;;;;;;;4.50;1.40;;;15.30;1.00;;;;;;5090988;28;20209;-56
2022/11/02 09:11:49;;;;;;;6.23;2.00;;;15.40;1.00;;;;;;5090984;28;20224;-56
2022/11/02 09:14:14;;;;;;;8.87;2.10;;;15.60;1.00;;;;;;5090703;28;20950;-56
2022/11/02 09:16:40;;;;;;;5.70;1.87;;;15.70;1.00;;;;;;5091036;28;20474;-56
2022/11/02 09:19:06;;;;;;;8.03;1.87;;;15.80;1.00;;;;;;5089216;28;20820;-57
2022/11/02 09:21:31;;;;;;;5.73;1.73;;;15.80;1.00;;;;;;5089152;28;20657;-55
2022/11/02 09:23:57;;;;;;;5.40;2.10;;;;;;;;;;5089751;28;20193;-56
2022/11/02 09:26:23;;;;;;;7.83;2.20;;;;;;;;;;5090708;28;20193;-55
2022/11/02 09:28:48;;;;;;;8.10;2.10;;;15.80;1.00;;;;;;5090494;28;20541;-54
2022/11/02 09:31:14;;;;;;;5.23;2.10;;;16.10;1.00;;;;;;5090321;28;20483;-56
2022/11/02 09:33:40;;;;;;;5.07;2.07;;;16.10;1.00;;;;;;5090340;28;20185;-56
2022/11/02 09:36:06;;;;;;;8.77;2.50;;;16.20;1.00;;;;;;5090246;28;20844;-56
2022/11/02 09:38:32;;;;;;;8.70;2.33;;;16.30;1.00;;;;;;5090357;28;20198;-56
2022/11/02 09:40:57;;;;;;;6.43;1.97;;;16.30;1.00;;;;;;5089102;28;20734;-56
2022/11/02 09:43:38;;;;;;;6.07;2.40;;;16.20;1.00;;;;;;5086782;28;20442;-56
2022/11/02 09:46:07;;;;;;;3.43;2.00;;;16.40;1.00;;;;;;5087658;28;20196;-55
2022/11/02 09:48:40;;;;;;;7.67;2.60;;;16.30;1.00;;;;;;5089282;28;20471;-55
2022/11/02 09:51:43;;;;;;;7.53;1.80;;;16.30;1.00;;;;;;5089033;28;20445;-56
2022/11/02 09:54:24;;;;;;;19.03;2.30;;;16.10;1.00;;;;;;5081801;28;20446;-55
2022/11/02 09:56:51;;;;;;;4.73;1.90;;;16.20;1.00;;;;;;5088386;28;20455;-54
2022/11/02 09:59:22;;;;;;;2.30;1.47;;;16.20;1.00;;;;;;5088258;28;20423;-55
2022/11/02 10:02:22;;;;;;;4.83;1.87;;;16.20;1.00;;;;;;5090456;28;20930;-55
2022/11/02 10:04:58;;;;;;;4.60;2.20;;;16.20;1.00;;;;;;5090064;28;20488;-56
2022/11/02 10:08:01;;;;;;;6.43;1.60;;;16.30;1.00;;;;;;5089784;28;20455;-55
2022/11/02 10:10:32;;;;;;;5.03;1.73;;;16.20;1.00;;;;;;5089162;28;20956;-56
2022/11/02 10:13:25;;;;;;;6.57;2.00;;;16.00;1.00;;;;;;5089779;28;20408;-54
2022/11/02 10:16:20;;;;;;;4.23;1.77;;;16.10;1.00;;;;;;5089725;28;20447;-57
2022/11/02 10:18:49;;;;;;;3.63;1.80;;;16.00;1.00;;;;;;5080546;28;20452;-55
2022/11/02 10:21:26;;;;;;;3.87;1.40;;;16.10;1.00;;;;;;5089670;28;20466;-55
2022/11/02 10:23:53;;;;;;;3.37;1.57;;;16.40;1.00;;;;;;5089834;28;20424;-54
2022/11/02 10:26:29;;;;;;;2.67;1.70;;;16.50;1.00;;;;;;5089559;28;20448;-55
2022/11/02 10:29:17;;;;;;;8.63;1.63;;;16.80;1.00;;;;;;5089671;28;20474;-54
2022/11/02 10:31:42;;;;;;;2.87;1.80;;;16.90;1.00;;;;;;5089368;28;20464;-56
2022/11/02 10:34:23;;;;;;;5.20;2.27;;;17.20;1.00;;;;;;5089527;28;20931;-55
2022/11/02 10:37:05;;;;;;;3.13;1.67;;;17.10;1.00;;;;;;5088891;28;20177;-53
2022/11/02 10:39:58;;;;;;;8.97;2.73;;;17.10;1.00;;;;;;5088635;28;20423;-53
2022/11/02 10:42:41;;;;;;;5.23;1.67;;;17.00;1.00;;;;;;5089325;28;20424;-56
2022/11/02 10:45:22;;;;;;;3.30;1.60;;;17.20;1.00;;;;;;5089635;28;20789;-53
2022/11/02 10:48:07;;;;;;;5.90;1.60;;;17.40;1.00;;;;;;5089311;28;20913;-56
2022/11/02 10:51:05;;;;;;;4.80;1.60;;;17.40;1.00;;;;;;5088413;28;20777;-53
2022/11/02 10:53:35;;;;;;;2.30;1.50;;;17.10;1.00;;;;;;5085126;28;21052;-56
2022/11/02 10:56:16;;;;;;;4.87;1.90;;;16.90;1.00;;;;;;5089084;28;20937;-56
2022/11/02 10:58:55;;;;;;;6.63;2.70;;;17.00;1.00;;;;;;5084186;28;20618;-54
2022/11/02 11:01:21;;;;;;;7.73;2.00;;;;;;;;;;5087549;28;20414;-56
2022/11/02 11:03:59;;;;;;;3.87;1.80;;;16.80;1.00;;;;;;5086140;28;20459;-56
2022/11/02 11:06:27;;;;;;;4.63;1.83;;;17.00;1.00;;;;;;5087573;28;20784;-57
2022/11/02 11:08:59;;;;;;;3.93;1.50;;;17.00;1.00;;;;;;5093319;28;20790;-54
2022/11/02 11:11:30;;;;;;;4.13;2.23;;;17.00;1.00;;;;;;5090433;28;20420;-54
2022/11/02 11:14:06;;;;;;;4.87;1.70;;;16.80;1.00;;;;;;5090991;28;20450;-56
2022/11/02 11:16:38;;;;;;;5.17;2.23;;;16.80;1.00;;;;;;5091272;28;20492;-54
2022/11/02 11:19:12;;;;;;;5.40;2.20;;;16.80;1.00;;;;;;5093096;28;20829;-55
2022/11/02 11:21:41;;;;;;;3.40;1.70;;;16.80;1.00;;;;;;5092058;28;20930;-55
2022/11/02 11:24:24;;;;;;;5.97;1.70;;;17.00;1.00;;;;;;5092753;28;20442;-54
2022/11/02 11:26:59;;;;;;;3.37;1.90;;;16.90;1.00;;;;;;5091284;28;20423;-54
2022/11/02 11:29:28;;;;;;;5.43;1.60;;;16.80;1.00;;;;;;5090952;28;20447;-55
2022/11/02 11:31:54;;;;;;;5.40;2.10;;;17.00;1.00;;;;;;5092635;28;20430;-56
2022/11/02 11:34:29;;;;;;;7.00;2.90;;;17.00;1.00;;;;;;5092633;28;20448;-54
2022/11/02 11:37:13;;;;;;;12.07;2.70;;;16.70;1.00;;;;;;5090380;28;20197;-54
2022/11/02 11:39:43;;;;;;;3.63;1.80;;;16.60;1.00;;;;;;5090347;28;20459;-55
2022/11/02 11:42:24;;;;;;;4.70;1.70;;;16.80;1.00;;;;;;5092704;28;20527;-54
2022/11/02 11:44:55;;;;;;;6.70;2.50;;;16.80;1.00;;;;;;5089537;28;20815;-56
2022/11/02 11:47:27;;;;;;;11.07;2.70;;;17.00;1.00;;;;;;5092376;28;20450;-55
2022/11/02 11:49:54;;;;;;;5.77;2.17;;;16.90;1.00;;;;;;5090459;28;20437;-54
2022/11/02 11:52:31;;;;;;;6.30;1.70;;;16.70;1.00;;;;;;5090232;28;20819;-56
2022/11/02 11:55:01;;;;;;;5.43;2.17;;;16.30;1.00;;;;;;5089045;28;20453;-53
2022/11/02 11:57:32;;;;;;;3.90;1.93;;;16.30;1.00;;;;;;5089345;27;20414;-55
2022/11/02 12:00:03;;;;;;;5.00;1.90;;;16.30;1.00;;;;;;5090199;28;20492;-55
2022/11/02 12:02:34;;;;;;;5.07;1.53;;;16.40;1.00;;;;;;5091846;28;20503;-54
2022/11/02 12:05:16;;;;;;;5.77;1.73;;;16.50;1.00;;;;;;5092095;28;20952;-55
2022/11/02 12:08:19;;;;;;;5.03;1.70;;;16.80;1.00;;;;;;5092406;28;20443;-54
2022/11/02 12:11:16;;;;;;;4.30;1.50;;;17.10;1.00;;;;;;5080372;28;20457;-55
2022/11/02 12:14:26;;;;;;;2.43;1.57;;;17.00;1.00;;;;;;5088566;28;20452;-54
2022/11/02 12:16:59;;;;;;;3.40;1.60;;;17.00;1.00;;;;;;5089547;28;20424;-56
2022/11/02 12:19:56;;;;;;;3.67;2.00;;;16.80;1.00;;;;;;5090977;28;20477;-54
2022/11/02 12:22:40;;;;;;;14.70;2.37;;;16.60;1.00;;;;;;5091599;28;20442;-54
2022/11/02 12:25:36;;;;;;;3.10;1.40;;;16.70;1.00;;;;;;5091372;28;20502;-56
2022/11/02 12:28:33;;;;;;;3.83;1.10;;;16.50;1.00;;;;;;5091799;28;20496;-56
2022/11/02 12:31:04;;;;;;;5.23;2.60;;;16.40;1.00;;;;;;5090105;28;20492;-56
2022/11/02 12:33:44;;;;;;;6.23;2.00;;;16.50;1.00;;;;;;5091830;28;20459;-55
2022/11/02 12:36:50;;;;;;;2.73;1.47;;;16.70;1.00;;;;;;5091670;28;20433;-56
2022/11/02 12:39:41;;;;;;;3.33;1.53;;;16.60;1.00;;;;;;5068419;28;20453;-54
2022/11/02 12:42:21;;;;;;;4.67;1.60;;;16.90;1.00;;;;;;5090214;28;20478;-54
2022/11/02 12:45:01;;;;;;;9.60;1.90;;;17.20;1.00;;;;;;5089277;28;21193;-56
2022/11/02 12:47:35;;;;;;;5.03;2.10;;;17.30;1.00;;;;;;5089031;28;20566;-53
2022/11/02 12:50:07;;;;;;;6.00;1.60;;;;;;;;;;5088251;28;20539;-55
2022/11/02 12:52:44;;;;;;;3.13;2.10;;;17.30;1.00;;;;;;5090820;28;20459;-55
2022/11/02 12:55:37;;;;;;;4.43;1.70;;;;;;;;;;5083434;28;20436;-55
2022/11/02 12:58:12;;;;;;;5.43;1.60;;;17.00;1.00;;;;;;5085793;28;20487;-55
2022/11/02 13:00:41;;;;;;;2.60;1.33;;;16.70;1.00;;;;;;5091072;28;20440;-54
2022/11/02 13:03:56;;;;;;;1.93;1.23;;;16.50;1.00;;;;;;5091026;28;20438;-53
2022/11/02 13:06:35;;;;;;;4.60;1.63;;;16.40;1.00;;;;;;5067473;28;20450;-55
2022/11/02 13:09:11;;;;;;;4.20;1.53;;;16.50;1.00;;;;;;5090740;28;20469;-55
2022/11/02 13:11:41;;;;;;;3.33;1.37;;;16.80;1.00;;;;;;5091225;28;20440;-53
2022/11/02 13:14:18;;;;;;;3.20;1.40;;;16.70;1.00;;;;;;5090947;28;20416;-54
2022/11/02 13:16:56;;;;;;;8.60;2.40;;;16.50;1.00;;;;;;5090454;28;20989;-55
2022/11/02 13:19:38;;;;;;;4.63;1.50;;;16.60;1.00;;;;;;5088966;28;20972;-53
2022/11/02 13:22:07;;;;;;;6.57;2.00;;;16.80;1.00;;;;;;5088169;28;20428;-55
2022/11/02 13:24:42;;;;;;;7.07;1.60;;;16.70;1.00;;;;;;5090679;28;20942;-53